sensor_id;sensor_type;location;lat;lon;timestamp;temperature;humidity
15450;DHT22;7826;49.784;9.934;2023-07-13T00:01:13;18.60;13.70
15450;DHT22;7826;49.784;9.934;2023-07-13T00:03:40;18.50;57.20
15450;DHT22;7826;49.784;9.934;2023-07-13T00:06:08;18.50;99.90
15450;DHT22;7826;49.784;9.934;2023-07-13T00:08:35;18.50;1.00
15450;DHT22;7826;49.784;9.934;2023-07-13T00:11:03;18.50;1.00
15450;DHT22;7826;49.784;9.934;2023-07-13T00:13:30;18.50;99.90
15450;DHT22;7826;49.784;9.934;2023-07-13T00:15:58;18.50;99.90
15450;DHT22;7826;49.784;9.934;2023-07-13T00:18:25;18.50;1.00
15450;DHT22;7826;49.784;9.934;2023-07-13T00:20:51;18.50;1.00
15450;DHT22;7826;49.784;9.934;2023-07-13T00:23:18;18.50;99.90
15450;DHT22;7826;49.784;9.934;2023-07-13T00:25:45;18.40;99.90
15450;DHT22;7826;49.784;9.934;2023-07-13T00:28:11;18.30;99.90
15450;DHT22;7826;49.784;9.934;2023-07-13T00:30:38;18.20;1.00
15450;DHT22;7826;49.784;9.934;2023-07-13T00:33:04;18.20;1.00
15450;DHT22;7826;49.784;9.934;2023-07-13T00:35:31;18.20;1.00
15450;DHT22;7826;49.784;9.934;2023-07-13T00:37:58;18.20;1.00
15450;DHT22;7826;49.784;9.934;2023-07-13T00:40:25;18.10;1.00
15450;DHT22;7826;49.784;9.934;2023-07-13T00:42:53;18.10;1.00
15450;DHT22;7826;49.784;9.934;2023-07-13T00:47:46;18.00;1.00
15450;DHT22;7826;49.784;9.934;2023-07-13T00:50:14;18.00;99.90
15450;DHT22;7826;49.784;9.934;2023-07-13T00:52:44;17.90;99.90
15450;DHT22;7826;49.784;9.934;2023-07-13T00:55:11;17.90;99.90
15450;DHT22;7826;49.784;9.934;2023-07-13T00:57:39;17.80;1.00
15450;DHT22;7826;49.784;9.934;2023-07-13T01:00:07;17.80;1.00
15450;DHT22;7826;49.784;9.934;2023-07-13T01:02:40;17.80;99.90
15450;DHT22;7826;49.784;9.934;2023-07-13T01:05:12;17.80;99.90
15450;DHT22;7826;49.784;9.934;2023-07-13T01:07:41;17.70;1.00
15450;DHT22;7826;49.784;9.934;2023-07-13T01:10:11;17.70;99.90
15450;DHT22;7826;49.784;9.934;2023-07-13T01:12:38;17.60;99.90
15450;DHT22;7826;49.784;9.934;2023-07-13T01:15:32;17.50;99.90
15450;DHT22;7826;49.784;9.934;2023-07-13T01:17:52;17.60;1.00
15450;DHT22;7826;49.784;9.934;2023-07-13T01:20:19;17.50;1.00
15450;DHT22;7826;49.784;9.934;2023-07-13T01:22:45;17.50;99.90
15450;DHT22;7826;49.784;9.934;2023-07-13T01:25:12;17.50;1.00
15450;DHT22;7826;49.784;9.934;2023-07-13T01:27:39;17.50;99.90
15450;DHT22;7826;49.784;9.934;2023-07-13T01:30:07;17.50;1.00
15450;DHT22;7826;49.784;9.934;2023-07-13T01:32:34;17.40;1.00
15450;DHT22;7826;49.784;9.934;2023-07-13T01:35:01;17.40;1.00
15450;DHT22;7826;49.784;9.934;2023-07-13T01:37:27;17.40;99.90
15450;DHT22;7826;49.784;9.934;2023-07-13T01:40:03;17.30;1.00
15450;DHT22;7826;49.784;9.934;2023-07-13T01:42:30;17.30;99.90
15450;DHT22;7826;49.784;9.934;2023-07-13T01:44:57;17.30;91.10
15450;DHT22;7826;49.784;9.934;2023-07-13T01:47:24;17.20;1.00
15450;DHT22;7826;49.784;9.934;2023-07-13T01:49:52;17.20;1.00
15450;DHT22;7826;49.784;9.934;2023-07-13T01:52:18;17.10;99.90
15450;DHT22;7826;49.784;9.934;2023-07-13T01:54:45;17.10;99.90
15450;DHT22;7826;49.784;9.934;2023-07-13T01:57:12;17.00;1.00
15450;DHT22;7826;49.784;9.934;2023-07-13T01:59:38;17.00;99.90
15450;DHT22;7826;49.784;9.934;2023-07-13T02:02:05;17.00;76.00
15450;DHT22;7826;49.784;9.934;2023-07-13T02:04:31;16.90;1.00
15450;DHT22;7826;49.784;9.934;2023-07-13T02:06:58;17.00;1.00
15450;DHT22;7826;49.784;9.934;2023-07-13T02:09:24;16.90;1.00
15450;DHT22;7826;49.784;9.934;2023-07-13T02:11:51;16.80;1.00
15450;DHT22;7826;49.784;9.934;2023-07-13T02:14:17;16.80;1.00
15450;DHT22;7826;49.784;9.934;2023-07-13T02:16:44;16.70;86.80
15450;DHT22;7826;49.784;9.934;2023-07-13T02:19:10;16.70;99.90
15450;DHT22;7826;49.784;9.934;2023-07-13T02:21:37;16.80;1.00
15450;DHT22;7826;49.784;9.934;2023-07-13T02:24:04;16.70;99.90
15450;DHT22;7826;49.784;9.934;2023-07-13T02:26:30;16.70;1.00
15450;DHT22;7826;49.784;9.934;2023-07-13T02:28:57;16.60;1.00
15450;DHT22;7826;49.784;9.934;2023-07-13T02:31:23;16.60;99.90
15450;DHT22;7826;49.784;9.934;2023-07-13T02:33:50;16.50;1.00
15450;DHT22;7826;49.784;9.934;2023-07-13T02:36:16;16.50;99.90
15450;DHT22;7826;49.784;9.934;2023-07-13T02:38:44;16.50;1.00
15450;DHT22;7826;49.784;9.934;2023-07-13T02:41:11;16.40;1.00
15450;DHT22;7826;49.784;9.934;2023-07-13T02:43:39;16.30;99.90
15450;DHT22;7826;49.784;9.934;2023-07-13T02:46:06;16.30;1.00
15450;DHT22;7826;49.784;9.934;2023-07-13T02:48:36;16.30;55.60
15450;DHT22;7826;49.784;9.934;2023-07-13T02:51:04;16.20;99.90
15450;DHT22;7826;49.784;9.934;2023-07-13T02:53:30;16.20;1.00
15450;DHT22;7826;49.784;9.934;2023-07-13T02:55:57;16.20;1.00
15450;DHT22;7826;49.784;9.934;2023-07-13T02:58:24;16.20;1.00
15450;DHT22;7826;49.784;9.934;2023-07-13T03:00:51;16.30;1.00
15450;DHT22;7826;49.784;9.934;2023-07-13T03:03:18;16.20;11.20
15450;DHT22;7826;49.784;9.934;2023-07-13T03:05:45;16.20;99.90
15450;DHT22;7826;49.784;9.934;2023-07-13T03:08:16;16.10;99.90
15450;DHT22;7826;49.784;9.934;2023-07-13T03:10:44;16.20;99.90
15450;DHT22;7826;49.784;9.934;2023-07-13T03:13:10;16.20;1.00
15450;DHT22;7826;49.784;9.934;2023-07-13T03:15:37;16.20;1.00
15450;DHT22;7826;49.784;9.934;2023-07-13T03:18:04;16.20;17.20
15450;DHT22;7826;49.784;9.934;2023-07-13T03:20:35;16.30;99.90
15450;DHT22;7826;49.784;9.934;2023-07-13T03:23:02;16.20;1.00
15450;DHT22;7826;49.784;9.934;2023-07-13T03:25:29;16.20;1.00
15450;DHT22;7826;49.784;9.934;2023-07-13T03:27:55;16.20;1.00
15450;DHT22;7826;49.784;9.934;2023-07-13T03:30:22;16.30;99.90
15450;DHT22;7826;49.784;9.934;2023-07-13T03:32:49;16.40;1.00
15450;DHT22;7826;49.784;9.934;2023-07-13T03:35:16;16.50;99.90
15450;DHT22;7826;49.784;9.934;2023-07-13T03:37:42;16.80;99.90
15450;DHT22;7826;49.784;9.934;2023-07-13T03:40:10;16.70;99.90
15450;DHT22;7826;49.784;9.934;2023-07-13T03:42:37;16.70;30.30
15450;DHT22;7826;49.784;9.934;2023-07-13T03:45:03;16.70;1.00
15450;DHT22;7826;49.784;9.934;2023-07-13T03:47:30;16.70;99.90
15450;DHT22;7826;49.784;9.934;2023-07-13T03:49:56;16.70;1.00
15450;DHT22;7826;49.784;9.934;2023-07-13T03:52:23;16.70;99.90
15450;DHT22;7826;49.784;9.934;2023-07-13T03:54:50;16.70;99.90
15450;DHT22;7826;49.784;9.934;2023-07-13T03:57:16;16.70;1.00
15450;DHT22;7826;49.784;9.934;2023-07-13T03:59:43;16.80;99.90
15450;DHT22;7826;49.784;9.934;2023-07-13T04:02:09;16.70;1.00
15450;DHT22;7826;49.784;9.934;2023-07-13T04:04:36;16.70;1.00
15450;DHT22;7826;49.784;9.934;2023-07-13T04:07:07;16.70;34.80
15450;DHT22;7826;49.784;9.934;2023-07-13T04:09:35;16.80;99.90
15450;DHT22;7826;49.784;9.934;2023-07-13T04:12:02;16.80;1.00
15450;DHT22;7826;49.784;9.934;2023-07-13T04:14:29;16.70;1.00
15450;DHT22;7826;49.784;9.934;2023-07-13T04:16:56;16.80;99.90
15450;DHT22;7826;49.784;9.934;2023-07-13T04:19:22;16.80;99.90
15450;DHT22;7826;49.784;9.934;2023-07-13T04:21:49;16.80;1.00
15450;DHT22;7826;49.784;9.934;2023-07-13T04:24:16;16.90;99.90
15450;DHT22;7826;49.784;9.934;2023-07-13T04:26:42;16.90;1.00
15450;DHT22;7826;49.784;9.934;2023-07-13T04:29:09;16.90;1.00
15450;DHT22;7826;49.784;9.934;2023-07-13T04:31:35;16.90;1.00
15450;DHT22;7826;49.784;9.934;2023-07-13T04:34:02;16.90;99.90
15450;DHT22;7826;49.784;9.934;2023-07-13T04:36:29;16.90;1.00
15450;DHT22;7826;49.784;9.934;2023-07-13T04:38:55;16.90;1.00
15450;DHT22;7826;49.784;9.934;2023-07-13T04:41:22;17.00;99.90
15450;DHT22;7826;49.784;9.934;2023-07-13T04:43:48;17.00;1.00
15450;DHT22;7826;49.784;9.934;2023-07-13T04:46:17;17.00;99.90
15450;DHT22;7826;49.784;9.934;2023-07-13T04:48:45;17.10;99.90
15450;DHT22;7826;49.784;9.934;2023-07-13T04:51:11;17.10;1.00
15450;DHT22;7826;49.784;9.934;2023-07-13T04:53:38;17.20;1.00
15450;DHT22;7826;49.784;9.934;2023-07-13T04:56:04;17.20;87.00
15450;DHT22;7826;49.784;9.934;2023-07-13T04:58:31;17.20;99.90
15450;DHT22;7826;49.784;9.934;2023-07-13T05:01:03;17.20;99.90
15450;DHT22;7826;49.784;9.934;2023-07-13T05:03:30;17.20;1.00
15450;DHT22;7826;49.784;9.934;2023-07-13T05:05:59;17.20;99.90
15450;DHT22;7826;49.784;9.934;2023-07-13T05:08:26;17.30;1.00
15450;DHT22;7826;49.784;9.934;2023-07-13T05:10:52;17.30;99.90
15450;DHT22;7826;49.784;9.934;2023-07-13T05:13:20;17.40;99.90
15450;DHT22;7826;49.784;9.934;2023-07-13T05:15:55;17.50;1.00
15450;DHT22;7826;49.784;9.934;2023-07-13T05:18:22;17.50;1.00
15450;DHT22;7826;49.784;9.934;2023-07-13T05:20:59;17.70;1.00
15450;DHT22;7826;49.784;9.934;2023-07-13T05:23:26;17.70;1.00
15450;DHT22;7826;49.784;9.934;2023-07-13T05:25:52;17.80;99.90
15450;DHT22;7826;49.784;9.934;2023-07-13T05:28:19;17.90;5.70
15450;DHT22;7826;49.784;9.934;2023-07-13T05:30:49;18.00;1.00
15450;DHT22;7826;49.784;9.934;2023-07-13T05:33:16;18.00;1.00
15450;DHT22;7826;49.784;9.934;2023-07-13T05:35:43;18.10;99.90
15450;DHT22;7826;49.784;9.934;2023-07-13T05:38:10;18.20;99.90
15450;DHT22;7826;49.784;9.934;2023-07-13T05:40:36;18.20;1.00
15450;DHT22;7826;49.784;9.934;2023-07-13T05:43:03;18.40;1.00
15450;DHT22;7826;49.784;9.934;2023-07-13T05:45:29;18.40;99.90
15450;DHT22;7826;49.784;9.934;2023-07-13T05:47:56;18.50;1.00
15450;DHT22;7826;49.784;9.934;2023-07-13T05:50:23;18.50;1.00
15450;DHT22;7826;49.784;9.934;2023-07-13T05:52:49;18.50;1.00
15450;DHT22;7826;49.784;9.934;2023-07-13T05:55:16;18.50;1.00
15450;DHT22;7826;49.784;9.934;2023-07-13T05:57:42;18.60;1.00
15450;DHT22;7826;49.784;9.934;2023-07-13T06:00:09;18.60;1.00
15450;DHT22;7826;49.784;9.934;2023-07-13T06:02:36;18.80;1.00
15450;DHT22;7826;49.784;9.934;2023-07-13T06:05:02;18.90;99.90
15450;DHT22;7826;49.784;9.934;2023-07-13T06:07:29;18.90;99.90
15450;DHT22;7826;49.784;9.934;2023-07-13T06:09:55;19.10;9.20
15450;DHT22;7826;49.784;9.934;2023-07-13T06:12:22;19.10;97.90
15450;DHT22;7826;49.784;9.934;2023-07-13T06:14:49;19.20;1.00
15450;DHT22;7826;49.784;9.934;2023-07-13T06:17:15;19.30;1.00
15450;DHT22;7826;49.784;9.934;2023-07-13T06:19:42;19.40;99.90
15450;DHT22;7826;49.784;9.934;2023-07-13T06:22:08;19.50;1.00
15450;DHT22;7826;49.784;9.934;2023-07-13T06:24:35;19.70;99.90
15450;DHT22;7826;49.784;9.934;2023-07-13T06:27:01;19.80;1.00
15450;DHT22;7826;49.784;9.934;2023-07-13T06:29:28;19.90;1.00
15450;DHT22;7826;49.784;9.934;2023-07-13T06:31:54;20.00;99.90
15450;DHT22;7826;49.784;9.934;2023-07-13T06:34:21;20.20;99.90
15450;DHT22;7826;49.784;9.934;2023-07-13T06:36:47;20.20;99.90
15450;DHT22;7826;49.784;9.934;2023-07-13T06:39:14;20.30;1.00
15450;DHT22;7826;49.784;9.934;2023-07-13T06:41:41;20.40;94.40
15450;DHT22;7826;49.784;9.934;2023-07-13T06:44:07;20.60;1.00
15450;DHT22;7826;49.784;9.934;2023-07-13T06:46:34;20.80;1.00
15450;DHT22;7826;49.784;9.934;2023-07-13T06:49:00;21.10;1.00
15450;DHT22;7826;49.784;9.934;2023-07-13T06:51:27;21.50;99.90
15450;DHT22;7826;49.784;9.934;2023-07-13T06:53:54;21.80;18.70
15450;DHT22;7826;49.784;9.934;2023-07-13T06:56:22;22.00;1.00
15450;DHT22;7826;49.784;9.934;2023-07-13T06:58:48;22.20;1.00
15450;DHT22;7826;49.784;9.934;2023-07-13T07:01:15;22.40;99.90
15450;DHT22;7826;49.784;9.934;2023-07-13T07:03:41;22.60;99.90
15450;DHT22;7826;49.784;9.934;2023-07-13T07:06:19;22.90;37.50
15450;DHT22;7826;49.784;9.934;2023-07-13T07:08:46;22.90;74.90
15450;DHT22;7826;49.784;9.934;2023-07-13T07:11:17;23.20;1.00
15450;DHT22;7826;49.784;9.934;2023-07-13T07:13:45;23.50;1.00
15450;DHT22;7826;49.784;9.934;2023-07-13T07:16:11;23.70;1.00
15450;DHT22;7826;49.784;9.934;2023-07-13T07:18:38;23.50;1.00
15450;DHT22;7826;49.784;9.934;2023-07-13T07:21:04;23.30;1.00
15450;DHT22;7826;49.784;9.934;2023-07-13T07:23:31;23.00;1.00
15450;DHT22;7826;49.784;9.934;2023-07-13T07:25:58;23.00;1.00
15450;DHT22;7826;49.784;9.934;2023-07-13T07:28:24;22.70;1.00
15450;DHT22;7826;49.784;9.934;2023-07-13T07:30:54;22.80;1.00
15450;DHT22;7826;49.784;9.934;2023-07-13T07:33:21;22.90;1.00
15450;DHT22;7826;49.784;9.934;2023-07-13T07:35:47;23.00;1.00
15450;DHT22;7826;49.784;9.934;2023-07-13T07:38:14;23.10;1.00
15450;DHT22;7826;49.784;9.934;2023-07-13T07:40:43;22.70;1.00
15450;DHT22;7826;49.784;9.934;2023-07-13T07:43:11;22.60;1.00
15450;DHT22;7826;49.784;9.934;2023-07-13T07:45:39;22.40;1.00
15450;DHT22;7826;49.784;9.934;2023-07-13T07:48:06;22.60;1.00
15450;DHT22;7826;49.784;9.934;2023-07-13T07:50:33;22.70;1.00
15450;DHT22;7826;49.784;9.934;2023-07-13T07:52:59;22.50;1.00
15450;DHT22;7826;49.784;9.934;2023-07-13T07:55:28;22.50;1.00
15450;DHT22;7826;49.784;9.934;2023-07-13T07:57:56;22.60;1.00
15450;DHT22;7826;49.784;9.934;2023-07-13T08:00:23;22.80;99.90
15450;DHT22;7826;49.784;9.934;2023-07-13T08:02:49;22.70;99.90
15450;DHT22;7826;49.784;9.934;2023-07-13T08:05:16;22.70;99.90
15450;DHT22;7826;49.784;9.934;2023-07-13T08:07:42;22.60;1.00
15450;DHT22;7826;49.784;9.934;2023-07-13T08:10:09;22.80;1.00
15450;DHT22;7826;49.784;9.934;2023-07-13T08:12:37;23.20;1.00
15450;DHT22;7826;49.784;9.934;2023-07-13T08:15:04;23.30;1.00
15450;DHT22;7826;49.784;9.934;2023-07-13T08:17:31;23.80;1.00
15450;DHT22;7826;49.784;9.934;2023-07-13T08:19:58;24.30;99.90
15450;DHT22;7826;49.784;9.934;2023-07-13T08:22:24;24.50;1.00
15450;DHT22;7826;49.784;9.934;2023-07-13T08:24:51;24.90;99.90
15450;DHT22;7826;49.784;9.934;2023-07-13T08:27:23;25.40;99.90
15450;DHT22;7826;49.784;9.934;2023-07-13T08:29:50;25.60;26.10
15450;DHT22;7826;49.784;9.934;2023-07-13T08:32:19;26.00;27.00
15450;DHT22;7826;49.784;9.934;2023-07-13T08:34:45;26.30;1.00
15450;DHT22;7826;49.784;9.934;2023-07-13T08:37:12;26.20;1.00
15450;DHT22;7826;49.784;9.934;2023-07-13T08:39:39;26.50;1.00
15450;DHT22;7826;49.784;9.934;2023-07-13T08:47:38;26.70;1.00
15450;DHT22;7826;49.784;9.934;2023-07-13T08:50:11;26.70;1.00
15450;DHT22;7826;49.784;9.934;2023-07-13T08:52:41;26.70;1.00
15450;DHT22;7826;49.784;9.934;2023-07-13T08:55:33;26.80;1.00
15450;DHT22;7826;49.784;9.934;2023-07-13T08:58:11;26.10;1.00
15450;DHT22;7826;49.784;9.934;2023-07-13T09:04:04;26.90;1.00
15450;DHT22;7826;49.784;9.934;2023-07-13T09:06:34;26.60;1.00
15450;DHT22;7826;49.784;9.934;2023-07-13T09:09:11;27.10;1.00
15450;DHT22;7826;49.784;9.934;2023-07-13T09:11:50;27.70;1.00
15450;DHT22;7826;49.784;9.934;2023-07-13T09:14:33;27.70;1.00
15450;DHT22;7826;49.784;9.934;2023-07-13T09:17:05;27.50;1.00
15450;DHT22;7826;49.784;9.934;2023-07-13T09:19:33;27.30;1.00
15450;DHT22;7826;49.784;9.934;2023-07-13T09:22:03;27.60;1.00
15450;DHT22;7826;49.784;9.934;2023-07-13T09:27:28;26.70;1.00
15450;DHT22;7826;49.784;9.934;2023-07-13T09:30:12;26.30;1.00
15450;DHT22;7826;49.784;9.934;2023-07-13T09:32:49;25.70;1.00
15450;DHT22;7826;49.784;9.934;2023-07-13T09:35:21;26.60;1.00
15450;DHT22;7826;49.784;9.934;2023-07-13T09:37:48;26.50;1.00
15450;DHT22;7826;49.784;9.934;2023-07-13T09:40:28;25.90;1.00
15450;DHT22;7826;49.784;9.934;2023-07-13T09:42:56;25.60;1.00
15450;DHT22;7826;49.784;9.934;2023-07-13T09:45:32;25.30;1.00
15450;DHT22;7826;49.784;9.934;2023-07-13T09:48:03;24.80;1.00
15450;DHT22;7826;49.784;9.934;2023-07-13T09:50:30;24.50;1.00
15450;DHT22;7826;49.784;9.934;2023-07-13T09:52:57;25.30;1.00
15450;DHT22;7826;49.784;9.934;2023-07-13T09:55:36;25.90;1.00
15450;DHT22;7826;49.784;9.934;2023-07-13T09:58:19;26.00;1.00
15450;DHT22;7826;49.784;9.934;2023-07-13T10:00:59;26.20;1.00
15450;DHT22;7826;49.784;9.934;2023-07-13T10:03:31;26.40;1.00
15450;DHT22;7826;49.784;9.934;2023-07-13T10:06:16;25.80;1.00
15450;DHT22;7826;49.784;9.934;2023-07-13T10:08:45;25.80;1.00
15450;DHT22;7826;49.784;9.934;2023-07-13T10:11:21;25.60;1.00
15450;DHT22;7826;49.784;9.934;2023-07-13T10:13:58;25.30;1.00
15450;DHT22;7826;49.784;9.934;2023-07-13T10:16:28;25.40;1.00
15450;DHT22;7826;49.784;9.934;2023-07-13T10:19:22;25.30;1.00
15450;DHT22;7826;49.784;9.934;2023-07-13T10:21:54;25.10;1.00
15450;DHT22;7826;49.784;9.934;2023-07-13T10:24:29;25.30;1.00
15450;DHT22;7826;49.784;9.934;2023-07-13T10:29:27;26.60;1.00
15450;DHT22;7826;49.784;9.934;2023-07-13T10:31:55;26.80;1.00
15450;DHT22;7826;49.784;9.934;2023-07-13T10:34:23;27.10;1.00
15450;DHT22;7826;49.784;9.934;2023-07-13T10:36:51;27.30;1.00
15450;DHT22;7826;49.784;9.934;2023-07-13T10:39:24;27.30;1.00
15450;DHT22;7826;49.784;9.934;2023-07-13T10:42:02;26.90;1.00
15450;DHT22;7826;49.784;9.934;2023-07-13T10:44:32;26.80;1.00
15450;DHT22;7826;49.784;9.934;2023-07-13T10:47:06;26.50;1.00
15450;DHT22;7826;49.784;9.934;2023-07-13T10:49:34;26.30;1.00
15450;DHT22;7826;49.784;9.934;2023-07-13T10:52:02;26.60;1.00
15450;DHT22;7826;49.784;9.934;2023-07-13T10:59:47;27.90;1.00
15450;DHT22;7826;49.784;9.934;2023-07-13T11:02:34;28.00;1.00
15450;DHT22;7826;49.784;9.934;2023-07-13T11:05:26;28.40;1.00
15450;DHT22;7826;49.784;9.934;2023-07-13T11:08:16;28.50;1.00
15450;DHT22;7826;49.784;9.934;2023-07-13T11:10:55;28.30;1.00
15450;DHT22;7826;49.784;9.934;2023-07-13T11:21:32;27.60;1.00
15450;DHT22;7826;49.784;9.934;2023-07-13T11:31:55;27.50;1.00
15450;DHT22;7826;49.784;9.934;2023-07-13T11:34:30;27.00;1.00
15450;DHT22;7826;49.784;9.934;2023-07-13T11:36:59;27.00;1.00
15450;DHT22;7826;49.784;9.934;2023-07-13T11:39:35;27.10;1.00
15450;DHT22;7826;49.784;9.934;2023-07-13T11:42:05;27.30;1.00
15450;DHT22;7826;49.784;9.934;2023-07-13T11:44:33;27.30;1.00
15450;DHT22;7826;49.784;9.934;2023-07-13T11:47:09;27.50;1.00
15450;DHT22;7826;49.784;9.934;2023-07-13T11:49:43;27.80;1.00
15450;DHT22;7826;49.784;9.934;2023-07-13T11:52:17;27.80;1.00
15450;DHT22;7826;49.784;9.934;2023-07-13T11:54:52;28.20;1.00
15450;DHT22;7826;49.784;9.934;2023-07-13T11:57:34;28.20;1.00
15450;DHT22;7826;49.784;9.934;2023-07-13T12:00:09;28.60;1.00
15450;DHT22;7826;49.784;9.934;2023-07-13T12:02:40;28.60;1.00
15450;DHT22;7826;49.784;9.934;2023-07-13T12:05:14;28.80;1.00
15450;DHT22;7826;49.784;9.934;2023-07-13T12:07:42;28.80;1.00
15450;DHT22;7826;49.784;9.934;2023-07-13T12:12:36;28.70;1.00
15450;DHT22;7826;49.784;9.934;2023-07-13T12:15:07;29.00;1.00
15450;DHT22;7826;49.784;9.934;2023-07-13T12:17:34;29.20;1.00
15450;DHT22;7826;49.784;9.934;2023-07-13T12:20:21;29.00;1.00
15450;DHT22;7826;49.784;9.934;2023-07-13T12:22:49;28.90;1.00
15450;DHT22;7826;49.784;9.934;2023-07-13T12:25:16;28.60;1.00
15450;DHT22;7826;49.784;9.934;2023-07-13T12:27:50;28.20;1.00
15450;DHT22;7826;49.784;9.934;2023-07-13T12:30:29;28.00;1.00
15450;DHT22;7826;49.784;9.934;2023-07-13T12:33:16;27.70;1.00
15450;DHT22;7826;49.784;9.934;2023-07-13T12:35:49;27.60;1.00
15450;DHT22;7826;49.784;9.934;2023-07-13T12:38:16;27.40;1.00
15450;DHT22;7826;49.784;9.934;2023-07-13T12:40:43;27.30;1.00
15450;DHT22;7826;49.784;9.934;2023-07-13T12:43:13;27.20;1.00
15450;DHT22;7826;49.784;9.934;2023-07-13T12:45:58;27.50;1.00
15450;DHT22;7826;49.784;9.934;2023-07-13T12:48:25;27.60;1.00
15450;DHT22;7826;49.784;9.934;2023-07-13T12:50:54;27.90;1.00
15450;DHT22;7826;49.784;9.934;2023-07-13T12:53:23;28.40;1.00
15450;DHT22;7826;49.784;9.934;2023-07-13T12:55:58;28.60;1.00
15450;DHT22;7826;49.784;9.934;2023-07-13T13:00:58;28.10;1.00
15450;DHT22;7826;49.784;9.934;2023-07-13T13:06:00;27.50;1.00
15450;DHT22;7826;49.784;9.934;2023-07-13T13:08:26;27.20;1.00
15450;DHT22;7826;49.784;9.934;2023-07-13T13:10:53;26.90;1.00
15450;DHT22;7826;49.784;9.934;2023-07-13T13:13:20;26.60;1.00
15450;DHT22;7826;49.784;9.934;2023-07-13T13:15:47;26.70;1.00
15450;DHT22;7826;49.784;9.934;2023-07-13T13:18:18;26.50;1.00
15450;DHT22;7826;49.784;9.934;2023-07-13T13:20:45;26.50;1.00
15450;DHT22;7826;49.784;9.934;2023-07-13T13:23:17;26.90;1.00
15450;DHT22;7826;49.784;9.934;2023-07-13T13:25:46;27.20;1.00
15450;DHT22;7826;49.784;9.934;2023-07-13T13:28:15;27.50;1.00
15450;DHT22;7826;49.784;9.934;2023-07-13T13:30:43;27.80;1.00
15450;DHT22;7826;49.784;9.934;2023-07-13T13:33:15;28.00;1.00
15450;DHT22;7826;49.784;9.934;2023-07-13T13:35:42;28.00;1.00
15450;DHT22;7826;49.784;9.934;2023-07-13T13:40:37;27.80;1.00
15450;DHT22;7826;49.784;9.934;2023-07-13T13:43:18;27.80;1.00
15450;DHT22;7826;49.784;9.934;2023-07-13T13:45:46;27.70;1.00
15450;DHT22;7826;49.784;9.934;2023-07-13T13:48:23;27.40;1.00
15450;DHT22;7826;49.784;9.934;2023-07-13T13:50:57;27.60;1.00
15450;DHT22;7826;49.784;9.934;2023-07-13T13:53:24;27.60;1.00
15450;DHT22;7826;49.784;9.934;2023-07-13T13:55:50;27.50;1.00
15450;DHT22;7826;49.784;9.934;2023-07-13T13:58:19;27.50;1.00
15450;DHT22;7826;49.784;9.934;2023-07-13T14:00:47;27.50;1.00
15450;DHT22;7826;49.784;9.934;2023-07-13T14:03:18;27.60;1.00
15450;DHT22;7826;49.784;9.934;2023-07-13T14:05:46;27.70;1.00
15450;DHT22;7826;49.784;9.934;2023-07-13T14:08:18;27.90;1.00
15450;DHT22;7826;49.784;9.934;2023-07-13T14:10:46;27.80;1.00
15450;DHT22;7826;49.784;9.934;2023-07-13T14:13:26;27.70;1.00
15450;DHT22;7826;49.784;9.934;2023-07-13T14:15:54;27.50;1.00
15450;DHT22;7826;49.784;9.934;2023-07-13T14:18:21;27.50;1.00
15450;DHT22;7826;49.784;9.934;2023-07-13T14:20:48;27.60;1.00
15450;DHT22;7826;49.784;9.934;2023-07-13T14:23:15;27.10;1.00
15450;DHT22;7826;49.784;9.934;2023-07-13T14:25:42;27.30;1.00
15450;DHT22;7826;49.784;9.934;2023-07-13T14:30:44;27.00;1.00
15450;DHT22;7826;49.784;9.934;2023-07-13T14:33:11;27.00;1.00
15450;DHT22;7826;49.784;9.934;2023-07-13T14:35:37;26.90;1.00
15450;DHT22;7826;49.784;9.934;2023-07-13T14:38:05;27.10;1.00
15450;DHT22;7826;49.784;9.934;2023-07-13T14:40:34;27.20;1.00
15450;DHT22;7826;49.784;9.934;2023-07-13T14:43:01;27.10;1.00
15450;DHT22;7826;49.784;9.934;2023-07-13T14:45:28;27.30;1.00
15450;DHT22;7826;49.784;9.934;2023-07-13T14:47:56;27.50;1.00
15450;DHT22;7826;49.784;9.934;2023-07-13T14:50:32;27.40;1.00
15450;DHT22;7826;49.784;9.934;2023-07-13T14:52:59;27.30;1.00
15450;DHT22;7826;49.784;9.934;2023-07-13T14:55:25;27.20;1.00
15450;DHT22;7826;49.784;9.934;2023-07-13T14:57:52;27.10;1.00
15450;DHT22;7826;49.784;9.934;2023-07-13T15:00:20;26.90;1.00
15450;DHT22;7826;49.784;9.934;2023-07-13T15:02:50;26.60;1.00
15450;DHT22;7826;49.784;9.934;2023-07-13T15:05:19;26.50;1.00
15450;DHT22;7826;49.784;9.934;2023-07-13T15:07:47;26.60;1.00
15450;DHT22;7826;49.784;9.934;2023-07-13T15:10:18;26.80;1.00
15450;DHT22;7826;49.784;9.934;2023-07-13T15:12:45;26.80;1.00
15450;DHT22;7826;49.784;9.934;2023-07-13T15:15:13;26.70;1.00
15450;DHT22;7826;49.784;9.934;2023-07-13T15:17:47;26.50;1.00
15450;DHT22;7826;49.784;9.934;2023-07-13T15:22:44;26.40;1.00
15450;DHT22;7826;49.784;9.934;2023-07-13T15:25:23;26.30;1.00
15450;DHT22;7826;49.784;9.934;2023-07-13T15:27:52;26.00;1.00
15450;DHT22;7826;49.784;9.934;2023-07-13T15:30:19;26.20;1.00
15450;DHT22;7826;49.784;9.934;2023-07-13T15:32:46;26.20;1.00
15450;DHT22;7826;49.784;9.934;2023-07-13T15:35:19;26.00;1.00
15450;DHT22;7826;49.784;9.934;2023-07-13T15:37:46;25.90;1.00
15450;DHT22;7826;49.784;9.934;2023-07-13T15:40:14;25.80;1.00
15450;DHT22;7826;49.784;9.934;2023-07-13T15:42:41;25.90;1.00
15450;DHT22;7826;49.784;9.934;2023-07-13T15:45:20;25.90;1.00
15450;DHT22;7826;49.784;9.934;2023-07-13T15:47:47;25.90;1.00
15450;DHT22;7826;49.784;9.934;2023-07-13T15:50:24;25.90;1.00
15450;DHT22;7826;49.784;9.934;2023-07-13T15:52:55;25.90;1.00
15450;DHT22;7826;49.784;9.934;2023-07-13T15:55:24;25.90;1.00
15450;DHT22;7826;49.784;9.934;2023-07-13T15:57:52;25.90;1.00
15450;DHT22;7826;49.784;9.934;2023-07-13T16:00:24;25.90;1.00
15450;DHT22;7826;49.784;9.934;2023-07-13T16:02:51;25.70;1.00
15450;DHT22;7826;49.784;9.934;2023-07-13T16:05:19;25.70;1.00
15450;DHT22;7826;49.784;9.934;2023-07-13T16:07:47;25.70;1.00
15450;DHT22;7826;49.784;9.934;2023-07-13T16:10:22;25.60;1.00
15450;DHT22;7826;49.784;9.934;2023-07-13T16:12:52;25.40;1.00
15450;DHT22;7826;49.784;9.934;2023-07-13T16:15:20;25.40;1.00
15450;DHT22;7826;49.784;9.934;2023-07-13T16:17:48;25.40;1.00
15450;DHT22;7826;49.784;9.934;2023-07-13T16:20:16;25.30;1.00
15450;DHT22;7826;49.784;9.934;2023-07-13T16:22:45;25.30;1.00
15450;DHT22;7826;49.784;9.934;2023-07-13T16:25:18;25.20;1.00
15450;DHT22;7826;49.784;9.934;2023-07-13T16:27:45;25.30;1.00
15450;DHT22;7826;49.784;9.934;2023-07-13T16:30:22;25.40;1.00
15450;DHT22;7826;49.784;9.934;2023-07-13T16:32:53;25.40;1.00
15450;DHT22;7826;49.784;9.934;2023-07-13T16:35:25;25.40;1.00
15450;DHT22;7826;49.784;9.934;2023-07-13T16:37:52;25.30;1.00
15450;DHT22;7826;49.784;9.934;2023-07-13T16:40:25;25.10;1.00
15450;DHT22;7826;49.784;9.934;2023-07-13T16:42:54;24.80;1.00
15450;DHT22;7826;49.784;9.934;2023-07-13T16:45:22;24.90;1.00
15450;DHT22;7826;49.784;9.934;2023-07-13T16:47:51;24.80;1.00
15450;DHT22;7826;49.784;9.934;2023-07-13T16:52:46;24.30;1.00
15450;DHT22;7826;49.784;9.934;2023-07-13T16:55:15;24.10;1.00
15450;DHT22;7826;49.784;9.934;2023-07-13T16:57:44;23.60;1.00
15450;DHT22;7826;49.784;9.934;2023-07-13T17:00:22;23.10;1.00
15450;DHT22;7826;49.784;9.934;2023-07-13T17:03:00;22.60;1.00
15450;DHT22;7826;49.784;9.934;2023-07-13T17:05:35;22.30;1.00